createdAt,value
2023-03-05T00:04:15.829Z,20.7
2023-03-05T00:10:09.065Z,20.7
2023-03-05T00:16:01.223Z,20.7
2023-03-05T00:21:53.605Z,20.7
2023-03-05T00:26:59.413Z,20.7
2023-03-05T00:32:55.236Z,20.6
2023-03-05T00:38:47.657Z,20.6
2023-03-05T00:44:41.259Z,20.6
2023-03-05T00:50:34.806Z,20.6
2023-03-05T00:56:26.864Z,20.6
2023-03-05T01:02:20.099Z,20.6
2023-03-05T01:08:13.644Z,20.6
2023-03-05T01:14:05.018Z,20.6
2023-03-05T01:19:42.538Z,20.6
2023-03-05T01:25:35.298Z,20.6
2023-03-05T01:31:12.436Z,20.6
2023-03-05T01:36:36.145Z,20.6
2023-03-05T01:42:29.541Z,20.5
2023-03-05T01:48:22.380Z,20.5
2023-03-05T01:54:00.159Z,20.5
2023-03-05T01:59:53.348Z,20.5
2023-03-05T02:05:45.986Z,20.5
2023-03-05T02:11:23.011Z,20.6
2023-03-05T02:17:00.155Z,20.9
2023-03-05T02:22:37.360Z,21.3
2023-03-05T02:33:51.129Z,22.2
2023-03-05T02:39:44.046Z,22.6
2023-03-05T02:45:35.821Z,23.1
2023-03-05T02:51:28.879Z,23.6
2023-03-05T02:57:22.211Z,24.1
2023-03-05T03:03:15.861Z,24.7
2023-03-05T03:09:08.449Z,25.2
2023-03-05T03:14:30.573Z,25.7
2023-03-05T03:20:08.312Z,26.2
2023-03-05T03:26:00.865Z,26.6
2023-03-05T03:31:23.570Z,27.1
2023-03-05T03:37:15.366Z,27.4
2023-03-05T03:42:52.484Z,27.7
2023-03-05T03:54:21.558Z,27.9
2023-03-05T04:00:13.948Z,28
2023-03-05T04:06:06.768Z,28.1
2023-03-05T04:11:58.004Z,28.1
2023-03-05T04:17:35.957Z,28.2
2023-03-05T04:23:13.090Z,28.1
2023-03-05T04:29:05.621Z,28.2
2023-03-05T04:34:58.849Z,28.3
2023-03-05T04:40:51.715Z,28.2
2023-03-05T04:46:43.870Z,28.3
2023-03-05T04:52:36.008Z,28.3
2023-03-05T04:58:14.584Z,28.3
2023-03-05T05:03:51.965Z,28.3
2023-03-05T05:09:29.257Z,28.3
2023-03-05T05:15:21.695Z,28.3
2023-03-05T05:21:15.221Z,28.3
2023-03-05T05:27:07.568Z,28.3
2023-03-05T05:33:00.874Z,28.2
2023-03-05T05:38:53.529Z,28.2
2023-03-05T05:44:46.352Z,28.2
2023-03-05T05:50:39.770Z,28.2
2023-03-05T05:56:32.314Z,28.2
2023-03-05T06:02:10.272Z,28.1
2023-03-05T06:08:06.073Z,28.1
2023-03-05T06:13:58.569Z,28.1
2023-03-05T06:20:00.070Z,28.1
2023-03-05T06:25:51.954Z,28.1
2023-03-05T06:31:45.093Z,28.1
2023-03-05T06:37:37.957Z,28.1
2023-03-05T06:43:30.783Z,28.1
2023-03-05T06:49:08.086Z,28
2023-03-05T06:55:01.500Z,28
2023-03-05T07:00:55.308Z,28
2023-03-05T07:06:48.288Z,27.9
2023-03-05T07:12:41.556Z,27.9
2023-03-05T07:18:36.193Z,27.9
2023-03-05T07:24:28.767Z,27.9
2023-03-05T07:30:22.040Z,27.9
2023-03-05T07:36:15.460Z,27.9
2023-03-05T07:47:46.594Z,33.9
2023-03-05T07:53:39.859Z,39.4
2023-03-05T07:59:18.308Z,37.4
2023-03-05T08:05:12.603Z,35.7
2023-03-05T08:11:05.519Z,34.4
2023-03-05T08:16:58.646Z,33.5
2023-03-05T08:22:36.595Z,32.8
2023-03-05T08:28:29.532Z,39.8
2023-03-05T08:34:24.999Z,38.8
2023-03-05T08:40:18.628Z,36.8
2023-03-05T08:46:12.132Z,38
2023-03-05T08:52:04.981Z,42.2
2023-03-05T08:57:57.741Z,43.4
2023-03-05T09:03:51.291Z,43
2023-03-05T09:09:28.396Z,42.5
2023-03-05T09:15:20.559Z,42.6
2023-03-05T09:21:14.496Z,42.9
2023-03-05T09:27:08.442Z,42.8
2023-03-05T09:33:02.382Z,42.4
2023-03-05T09:38:55.862Z,42.1
2023-03-05T09:44:48.423Z,41.9
2023-03-05T09:50:41.802Z,41.6
2023-03-05T09:56:34.443Z,41.4
2023-03-05T10:02:26.170Z,41.1
2023-03-05T10:08:18.971Z,40.9
2023-03-05T10:14:12.170Z,40.9
2023-03-05T10:20:05.541Z,41.1
2023-03-05T10:25:27.157Z,41.1
2023-03-05T10:31:19.885Z,40.9
2023-03-05T10:37:14.585Z,40.6
2023-03-05T10:43:07.522Z,40.5
2023-03-05T10:49:00.797Z,40.7
2023-03-05T10:54:54.413Z,41.3
2023-03-05T11:00:31.511Z,42.3
2023-03-05T11:06:27.686Z,43.1
2023-03-05T11:12:20.527Z,43.2
2023-03-05T11:18:00.193Z,44.3
2023-03-05T11:23:55.437Z,44.1
2023-03-05T11:29:55.551Z,43.8
2023-03-05T11:35:48.909Z,43.6
2023-03-05T11:41:26.563Z,44.2
2023-03-05T11:47:21.023Z,44.6
2023-03-05T11:53:15.716Z,45.2
2023-03-05T11:59:09.784Z,45.3
2023-03-05T12:05:06.288Z,46.1
2023-03-05T12:10:43.112Z,45.6
2023-03-05T12:16:37.399Z,45.7
2023-03-05T12:22:14.749Z,45.3
2023-03-05T12:27:52.737Z,45.9
2023-03-05T12:33:49.400Z,46.1
2023-03-05T12:40:05.230Z,46.7
2023-03-05T12:51:37.696Z,45.4
2023-03-05T12:57:17.258Z,45.6
2023-03-05T13:02:55.266Z,45.7
2023-03-05T13:08:33.238Z,45.1
2023-03-05T13:14:27.634Z,44.8
2023-03-05T13:20:20.886Z,44.4
2023-03-05T13:26:14.546Z,44.1
2023-03-05T13:32:08.384Z,43.7
2023-03-05T13:38:11.390Z,43.1
2023-03-05T13:44:06.080Z,42.6
2023-03-05T13:49:59.893Z,41
2023-03-05T13:55:53.469Z,38.9
2023-03-05T14:01:50.381Z,37.3
2023-03-05T14:07:47.789Z,35.9
2023-03-05T14:13:41.418Z,35
2023-03-05T14:18:47.887Z,34.3
2023-03-05T14:24:48.894Z,33.7
2023-03-05T14:30:42.943Z,33.1
2023-03-05T14:36:36.935Z,32.7
2023-03-05T14:42:15.528Z,32.3
2023-03-05T14:47:52.449Z,31.9
2023-03-05T14:53:13.771Z,31.7
2023-03-05T14:58:50.942Z,31.4
2023-03-05T15:04:46.353Z,31.1
2023-03-05T15:10:39.502Z,30.9
2023-03-05T15:16:33.078Z,30.7
2023-03-05T15:22:10.204Z,30.5
2023-03-05T15:27:48.847Z,30.4
2023-03-05T15:33:14.348Z,30.2
2023-03-05T15:38:35.522Z,30
2023-03-05T15:44:13.252Z,29.9
2023-03-05T15:49:50.656Z,29.7
2023-03-05T15:55:28.877Z,29.6
2023-03-05T16:01:06.769Z,29.4
2023-03-05T16:06:43.753Z,29.3
2023-03-05T16:12:22.307Z,29.1
2023-03-05T16:18:01.824Z,29
2023-03-05T16:23:38.490Z,28.9
2023-03-05T16:29:15.372Z,28.8
2023-03-05T16:34:53.090Z,28.7
2023-03-05T16:40:15.196Z,28.6
2023-03-05T16:46:17.224Z,28.5
2023-03-05T16:51:40.427Z,28.5
2023-03-05T16:57:25.167Z,28.4
2023-03-05T17:03:06.563Z,28.3
2023-03-05T17:08:45.064Z,28.1
2023-03-05T17:14:22.110Z,28
2023-03-05T17:20:00.540Z,28
2023-03-05T17:25:39.376Z,27.9
2023-03-05T17:37:05.097Z,27.8
2023-03-05T17:42:42.528Z,27.7
2023-03-05T17:48:19.837Z,27.6
2023-03-05T17:54:12.162Z,27.6
2023-03-05T18:00:06.606Z,27.5
2023-03-05T18:05:59.746Z,27.5
2023-03-05T18:11:37.535Z,27.4
2023-03-05T18:17:15.907Z,27.4
2023-03-05T18:23:10.844Z,27.3
2023-03-05T18:29:03.864Z,27.3
2023-03-05T18:34:56.335Z,27.3
2023-03-05T18:40:52.123Z,27.2
2023-03-05T18:46:32.773Z,27.2
2023-03-05T18:52:11.042Z,27.1
2023-03-05T18:58:03.273Z,27.1
2023-03-05T19:03:56.248Z,27.1
2023-03-05T19:09:50.279Z,27
2023-03-05T19:15:28.193Z,26.9
2023-03-05T19:21:06.326Z,26.9
2023-03-05T19:26:58.894Z,26.9
2023-03-05T19:32:51.344Z,26.9
2023-03-05T19:38:45.196Z,26.8
2023-03-05T19:44:38.490Z,26.8
2023-03-05T19:50:34.402Z,26.6
2023-03-05T19:56:13.073Z,26.3
2023-03-05T20:01:35.847Z,26.1
2023-03-05T20:13:08.644Z,25.9
2023-03-05T20:19:01.598Z,26.3
2023-03-05T20:24:58.892Z,27.1
2023-03-05T20:30:40.448Z,27.9
2023-03-05T20:36:34.922Z,28.4
2023-03-05T20:42:29.176Z,28.8
2023-03-05T20:47:52.128Z,29.2
2023-03-05T20:53:30.255Z,29.6
2023-03-05T20:58:53.329Z,30
2023-03-05T21:04:16.490Z,30.4
2023-03-05T21:09:39.672Z,30.8
2023-03-05T21:15:33.417Z,31.1
2023-03-05T21:21:13.291Z,31.3
2023-03-05T21:27:06.692Z,31.4
2023-03-05T21:32:44.791Z,31.1
2023-03-05T21:38:39.773Z,30.7
2023-03-05T21:44:17.144Z,30.4
2023-03-05T21:50:10.661Z,30.3
2023-03-05T21:56:03.079Z,30.1
2023-03-05T22:01:55.586Z,30
2023-03-05T22:07:32.411Z,29.9
2023-03-05T22:13:08.529Z,29.9
2023-03-05T22:19:02.802Z,29.8
2023-03-05T22:24:40.591Z,29.8
2023-03-05T22:30:33.234Z,29.7
2023-03-05T22:36:10.886Z,29.6
2023-03-05T22:41:48.781Z,29.6
2023-03-05T22:47:25.308Z,29.5
2023-03-05T22:53:18.079Z,29.4
2023-03-05T22:58:54.688Z,29.4
2023-03-05T23:04:17.229Z,29.3
2023-03-05T23:10:10.207Z,29.3
2023-03-05T23:16:03.235Z,29.3
2023-03-05T23:21:09.022Z,29.2
2023-03-05T23:26:46.370Z,29.1
2023-03-05T23:32:24.307Z,29.1
2023-03-05T23:43:39.997Z,28.9
2023-03-05T23:49:17.216Z,28.9
2023-03-05T23:54:58.261Z,28.9
